V/Λ SELECT: Month and Year
OR > Month
Monthly Climatological Summary for Feb 2012
Name: www.delerius-weather.com City: Winterton State: North Lincolnshire
Elevation: 42 m Lat: N 53° 39' 10" Lon: W 000° 36' 49"
Temperature (°C), Rain (mm), Wind Speed (mph)
Heat Cool Avg
Mean Deg Deg Wind Dom
Day Temp High Time Low Time Days Days Rain Speed High Time Dir
----------------------------------------------------------------------------------
1 1.8 2.9 21:00 1.2 02:15 14.4 0.0 0.0 13.4 24.0 12:15 ESE
2 0.1 2.1 21:00 -2.3 02:15 14.4 0.0 0.0 7.1 19.0 08:45 NW
3 -1.8 2.6 21:00 -5.3 02:15 14.4 0.0 0.2 4.5 13.0 14:45 WNW
4 -2.8 0.5 21:00 -6.3 02:15 14.4 0.0 0.0 18.0 42.0 18:00 SSW
5 -1.0 0.9 21:00 -2.4 02:15 14.4 0.0 0.0 8.0 30.0 00:15 SW
6 0.7 3.2 21:00 -1.3 02:15 14.4 0.0 0.0 4.8 12.0 22:30 NW
7 0.2 2.2 21:00 -2.3 02:15 14.4 0.0 0.2 9.4 22.0 18:30 W
8 -0.6 1.6 21:00 -2.5 02:15 14.4 0.0 0.0 6.6 19.0 21:45 S
9 -0.1 0.6 21:00 -0.8 02:15 14.4 0.0 0.0 9.6 22.0 19:00 S
10 -2.9 1.9 21:00 -6.4 02:15 14.4 0.0 0.0 13.8 25.0 12:30 SW
11 -3.8 0.1 21:00 -9.8 02:15 14.4 0.0 0.0 8.9 19.0 15:45 WNW
12 -0.6 4.7 21:00 -5.8 02:15 14.4 0.0 0.0 7.1 13.0 11:30 WNW
13 2.9 7.6 21:00 -0.2 02:15 14.4 0.0 0.2 14.3 43.0 22:15 NNW
14 4.9 7.2 21:00 3.1 02:15 14.4 0.0 0.2 11.5 33.0 02:45 NW
15 5.9 8.6 21:00 4.9 02:15 14.4 0.0 0.0 11.9 29.0 00:45 WNW
16 7.6 10.7 21:00 5.2 02:15 14.4 0.0 0.2 10.9 28.0 12:45 WNW
17 6.3 10.9 21:00 2.8 02:15 14.4 0.0 0.0 9.3 24.0 20:45 WSW
18 6.0 10.2 21:00 2.3 02:15 14.4 0.0 0.4 19.3 41.0 11:15 NW
19 1.2 4.9 21:00 -2.0 02:15 14.4 0.0 0.0 11.4 30.0 10:15 W
20 1.8 7.5 21:00 -1.8 02:15 14.4 0.0 0.0 18.3 36.0 13:45 WSW
21 6.8 12.6 21:00 4.8 02:15 14.4 0.0 0.0 18.0 31.0 11:45 SW
22 9.2 11.5 21:00 7.2 02:15 14.4 0.0 0.8 24.0 45.0 14:00 W
23 12.0 16.8 21:00 9.3 02:15 14.4 0.0 0.0 15.9 32.0 00:30 W
24 7.4 13.6 21:00 3.6 02:15 14.4 0.0 0.0 13.4 33.0 12:15 WNW
25 6.8 11.1 21:00 1.8 02:15 14.4 0.0 0.0 9.9 27.0 13:00 WNW
26 6.2 11.5 21:00 2.6 02:15 14.4 0.0 0.0 7.2 21.0 14:45 SW
27 8.0 13.2 21:00 5.1 02:15 14.4 0.0 2.0 12.7 26.0 22:30 WSW
28 11.3 14.8 21:00 9.6 02:15 14.4 0.0 0.0 11.4 26.0 10:15 WSW
29 7.8 11.3 21:00 5.3 02:15 14.4 0.0 0.0 6.2 14.0 14:30 S
----------------------------------------------------------------------------------
3.5 16.8 1 -9.8 1 417.6 0.0 4.2 11.6 45.0 22 W
Max >= 27.0: 0
Max <= 0.0: 0
Min <= 0.0: 0
Min <= -18.0: 0
Max Rain: 2.0 on day 27
Days of Rain: 8 (>= 0.2 mm) 1 (>= 2.0 mm) 0 (>= 20.0 mm)
Heat Base: 18.3 Cool Base: 18.3 Method: Integration